sensor_id;sensor_type;location;lat;lon;timestamp;P1;durP1;ratioP1;P2;durP2;ratioP2
17985;SDS011;9118;48.122;11.546;2023-08-17T00:01:39;10.32;;;8.75;;
17985;SDS011;9118;48.122;11.546;2023-08-17T00:04:06;9.07;;;8.18;;
17985;SDS011;9118;48.122;11.546;2023-08-17T00:06:35;10.57;;;9.05;;
17985;SDS011;9118;48.122;11.546;2023-08-17T00:09:02;10.85;;;9.80;;
17985;SDS011;9118;48.122;11.546;2023-08-17T00:11:30;8.80;;;7.90;;
17985;SDS011;9118;48.122;11.546;2023-08-17T00:13:56;9.18;;;8.13;;
17985;SDS011;9118;48.122;11.546;2023-08-17T00:16:24;11.30;;;8.50;;
17985;SDS011;9118;48.122;11.546;2023-08-17T00:18:51;11.65;;;8.35;;
17985;SDS011;9118;48.122;11.546;2023-08-17T00:21:18;12.00;;;8.43;;
17985;SDS011;9118;48.122;11.546;2023-08-17T00:23:46;9.10;;;8.00;;
17985;SDS011;9118;48.122;11.546;2023-08-17T00:26:13;10.48;;;8.45;;
17985;SDS011;9118;48.122;11.546;2023-08-17T00:28:40;9.85;;;8.90;;
17985;SDS011;9118;48.122;11.546;2023-08-17T00:31:07;10.50;;;9.50;;
17985;SDS011;9118;48.122;11.546;2023-08-17T00:33:34;10.35;;;8.43;;
17985;SDS011;9118;48.122;11.546;2023-08-17T00:36:01;10.35;;;8.82;;
17985;SDS011;9118;48.122;11.546;2023-08-17T00:38:30;9.07;;;8.18;;
17985;SDS011;9118;48.122;11.546;2023-08-17T00:40:58;9.52;;;8.65;;
17985;SDS011;9118;48.122;11.546;2023-08-17T00:43:25;10.23;;;9.02;;
17985;SDS011;9118;48.122;11.546;2023-08-17T00:45:52;12.95;;;8.63;;
17985;SDS011;9118;48.122;11.546;2023-08-17T00:48:20;11.32;;;8.27;;
17985;SDS011;9118;48.122;11.546;2023-08-17T00:50:47;11.45;;;8.45;;
17985;SDS011;9118;48.122;11.546;2023-08-17T00:53:16;10.90;;;8.50;;
17985;SDS011;9118;48.122;11.546;2023-08-17T00:55:44;9.63;;;8.50;;
17985;SDS011;9118;48.122;11.546;2023-08-17T00:58:13;9.73;;;8.82;;
17985;SDS011;9118;48.122;11.546;2023-08-17T01:00:40;9.48;;;8.57;;
17985;SDS011;9118;48.122;11.546;2023-08-17T01:03:09;9.50;;;8.43;;
17985;SDS011;9118;48.122;11.546;2023-08-17T01:05:36;10.07;;;8.82;;
17985;SDS011;9118;48.122;11.546;2023-08-17T01:08:03;9.68;;;8.00;;
17985;SDS011;9118;48.122;11.546;2023-08-17T01:10:31;9.18;;;8.13;;
17985;SDS011;9118;48.122;11.546;2023-08-17T01:13:08;10.18;;;8.13;;
17985;SDS011;9118;48.122;11.546;2023-08-17T01:15:42;9.45;;;8.07;;
17985;SDS011;9118;48.122;11.546;2023-08-17T01:18:17;9.93;;;8.80;;
17985;SDS011;9118;48.122;11.546;2023-08-17T01:20:51;12.55;;;8.60;;
17985;SDS011;9118;48.122;11.546;2023-08-17T01:23:21;9.87;;;8.87;;
17985;SDS011;9118;48.122;11.546;2023-08-17T01:25:49;10.57;;;8.63;;
17985;SDS011;9118;48.122;11.546;2023-08-17T01:28:16;11.55;;;9.13;;
17985;SDS011;9118;48.122;11.546;2023-08-17T01:30:44;9.50;;;8.60;;
17985;SDS011;9118;48.122;11.546;2023-08-17T01:33:18;11.32;;;8.77;;
17985;SDS011;9118;48.122;11.546;2023-08-17T01:35:52;9.13;;;8.07;;
17985;SDS011;9118;48.122;11.546;2023-08-17T01:38:26;11.23;;;8.65;;
17985;SDS011;9118;48.122;11.546;2023-08-17T01:40:57;9.70;;;8.70;;
17985;SDS011;9118;48.122;11.546;2023-08-17T01:43:26;9.40;;;8.48;;
17985;SDS011;9118;48.122;11.546;2023-08-17T01:45:56;8.87;;;7.97;;
17985;SDS011;9118;48.122;11.546;2023-08-17T01:48:25;9.82;;;8.25;;
17985;SDS011;9118;48.122;11.546;2023-08-17T01:50:52;9.48;;;8.50;;
17985;SDS011;9118;48.122;11.546;2023-08-17T01:53:19;9.55;;;8.65;;
17985;SDS011;9118;48.122;11.546;2023-08-17T01:55:48;9.10;;;8.23;;
17985;SDS011;9118;48.122;11.546;2023-08-17T01:58:15;11.53;;;8.73;;
17985;SDS011;9118;48.122;11.546;2023-08-17T02:00:42;9.40;;;8.43;;
17985;SDS011;9118;48.122;11.546;2023-08-17T02:03:12;10.02;;;8.68;;
17985;SDS011;9118;48.122;11.546;2023-08-17T02:05:47;11.73;;;9.10;;
17985;SDS011;9118;48.122;11.546;2023-08-17T02:08:14;10.30;;;8.15;;
17985;SDS011;9118;48.122;11.546;2023-08-17T02:10:42;9.82;;;8.82;;
17985;SDS011;9118;48.122;11.546;2023-08-17T02:13:13;10.38;;;9.15;;
17985;SDS011;9118;48.122;11.546;2023-08-17T02:15:40;9.82;;;8.82;;
17985;SDS011;9118;48.122;11.546;2023-08-17T02:18:07;9.65;;;8.73;;
17985;SDS011;9118;48.122;11.546;2023-08-17T02:20:34;9.40;;;8.25;;
17985;SDS011;9118;48.122;11.546;2023-08-17T02:23:02;10.60;;;8.97;;
17985;SDS011;9118;48.122;11.546;2023-08-17T02:25:29;9.50;;;8.60;;
17985;SDS011;9118;48.122;11.546;2023-08-17T02:28:00;9.63;;;8.65;;
17985;SDS011;9118;48.122;11.546;2023-08-17T02:30:28;9.43;;;8.60;;
17985;SDS011;9118;48.122;11.546;2023-08-17T02:32:56;9.45;;;8.48;;
17985;SDS011;9118;48.122;11.546;2023-08-17T02:35:24;9.40;;;8.48;;
17985;SDS011;9118;48.122;11.546;2023-08-17T02:37:51;9.80;;;8.80;;
17985;SDS011;9118;48.122;11.546;2023-08-17T02:40:18;9.52;;;8.20;;
17985;SDS011;9118;48.122;11.546;2023-08-17T02:42:48;9.68;;;8.77;;
17985;SDS011;9118;48.122;11.546;2023-08-17T02:45:15;10.93;;;9.23;;
17985;SDS011;9118;48.122;11.546;2023-08-17T02:47:43;9.75;;;8.90;;
17985;SDS011;9118;48.122;11.546;2023-08-17T02:50:10;10.20;;;9.07;;
17985;SDS011;9118;48.122;11.546;2023-08-17T02:52:37;11.23;;;9.50;;
17985;SDS011;9118;48.122;11.546;2023-08-17T02:55:04;10.32;;;9.23;;
17985;SDS011;9118;48.122;11.546;2023-08-17T02:57:32;9.75;;;8.85;;
17985;SDS011;9118;48.122;11.546;2023-08-17T02:59:59;9.80;;;8.80;;
17985;SDS011;9118;48.122;11.546;2023-08-17T03:02:26;9.38;;;8.48;;
17985;SDS011;9118;48.122;11.546;2023-08-17T03:04:54;9.95;;;8.68;;
17985;SDS011;9118;48.122;11.546;2023-08-17T03:07:21;10.45;;;8.35;;
17985;SDS011;9118;48.122;11.546;2023-08-17T03:09:48;10.68;;;8.52;;
17985;SDS011;9118;48.122;11.546;2023-08-17T03:12:16;9.32;;;8.43;;
17985;SDS011;9118;48.122;11.546;2023-08-17T03:14:43;10.68;;;9.13;;
17985;SDS011;9118;48.122;11.546;2023-08-17T03:17:10;9.93;;;8.57;;
17985;SDS011;9118;48.122;11.546;2023-08-17T03:19:37;9.67;;;8.67;;
17985;SDS011;9118;48.122;11.546;2023-08-17T03:22:06;10.80;;;8.40;;
17985;SDS011;9118;48.122;11.546;2023-08-17T03:24:33;9.87;;;8.87;;
17985;SDS011;9118;48.122;11.546;2023-08-17T03:27:00;9.93;;;8.52;;
17985;SDS011;9118;48.122;11.546;2023-08-17T03:29:28;8.93;;;8.10;;
17985;SDS011;9118;48.122;11.546;2023-08-17T03:31:55;9.88;;;8.98;;
17985;SDS011;9118;48.122;11.546;2023-08-17T03:34:22;10.27;;;8.00;;
17985;SDS011;9118;48.122;11.546;2023-08-17T03:36:49;9.87;;;8.97;;
17985;SDS011;9118;48.122;11.546;2023-08-17T03:39:26;10.05;;;9.05;;
17985;SDS011;9118;48.122;11.546;2023-08-17T03:42:02;11.02;;;9.50;;
17985;SDS011;9118;48.122;11.546;2023-08-17T03:44:30;9.65;;;8.77;;
17985;SDS011;9118;48.122;11.546;2023-08-17T03:46:57;10.63;;;9.38;;
17985;SDS011;9118;48.122;11.546;2023-08-17T03:49:23;11.23;;;9.23;;
17985;SDS011;9118;48.122;11.546;2023-08-17T03:51:50;10.20;;;9.27;;
17985;SDS011;9118;48.122;11.546;2023-08-17T03:54:17;9.82;;;8.82;;
17985;SDS011;9118;48.122;11.546;2023-08-17T03:56:46;10.57;;;9.48;;
17985;SDS011;9118;48.122;11.546;2023-08-17T03:59:13;11.18;;;9.05;;
17985;SDS011;9118;48.122;11.546;2023-08-17T04:01:40;10.38;;;9.20;;
17985;SDS011;9118;48.122;11.546;2023-08-17T04:04:09;12.23;;;9.63;;
17985;SDS011;9118;48.122;11.546;2023-08-17T04:06:36;10.63;;;9.52;;
17985;SDS011;9118;48.122;11.546;2023-08-17T04:09:04;11.35;;;9.10;;
17985;SDS011;9118;48.122;11.546;2023-08-17T04:11:31;9.82;;;8.82;;
17985;SDS011;9118;48.122;11.546;2023-08-17T04:14:02;9.85;;;8.93;;
17985;SDS011;9118;48.122;11.546;2023-08-17T04:16:29;10.52;;;8.85;;
17985;SDS011;9118;48.122;11.546;2023-08-17T04:18:57;9.90;;;9.10;;
17985;SDS011;9118;48.122;11.546;2023-08-17T04:21:24;9.65;;;8.70;;
17985;SDS011;9118;48.122;11.546;2023-08-17T04:23:50;10.32;;;9.25;;
17985;SDS011;9118;48.122;11.546;2023-08-17T04:26:17;11.45;;;8.90;;
17985;SDS011;9118;48.122;11.546;2023-08-17T04:28:44;10.17;;;8.63;;
17985;SDS011;9118;48.122;11.546;2023-08-17T04:31:13;10.20;;;9.17;;
17985;SDS011;9118;48.122;11.546;2023-08-17T04:33:42;9.82;;;8.73;;
17985;SDS011;9118;48.122;11.546;2023-08-17T04:36:09;10.82;;;9.00;;
17985;SDS011;9118;48.122;11.546;2023-08-17T04:38:36;10.77;;;8.70;;
17985;SDS011;9118;48.122;11.546;2023-08-17T04:41:03;10.68;;;8.98;;
17985;SDS011;9118;48.122;11.546;2023-08-17T04:43:30;10.03;;;9.00;;
17985;SDS011;9118;48.122;11.546;2023-08-17T04:45:57;9.00;;;8.05;;
17985;SDS011;9118;48.122;11.546;2023-08-17T04:48:26;10.82;;;9.05;;
17985;SDS011;9118;48.122;11.546;2023-08-17T04:50:53;9.75;;;8.75;;
17985;SDS011;9118;48.122;11.546;2023-08-17T04:53:20;10.43;;;9.33;;
17985;SDS011;9118;48.122;11.546;2023-08-17T04:55:47;10.15;;;9.23;;
17985;SDS011;9118;48.122;11.546;2023-08-17T04:58:14;10.25;;;9.25;;
17985;SDS011;9118;48.122;11.546;2023-08-17T05:00:40;10.60;;;9.57;;
17985;SDS011;9118;48.122;11.546;2023-08-17T05:03:08;13.27;;;9.88;;
17985;SDS011;9118;48.122;11.546;2023-08-17T05:05:36;11.95;;;9.85;;
17985;SDS011;9118;48.122;11.546;2023-08-17T05:08:03;13.80;;;10.20;;
17985;SDS011;9118;48.122;11.546;2023-08-17T05:10:30;15.88;;;11.25;;
17985;SDS011;9118;48.122;11.546;2023-08-17T05:12:57;11.10;;;10.02;;
17985;SDS011;9118;48.122;11.546;2023-08-17T05:15:24;11.60;;;10.50;;
17985;SDS011;9118;48.122;11.546;2023-08-17T05:17:52;11.75;;;10.55;;
17985;SDS011;9118;48.122;11.546;2023-08-17T05:20:20;12.57;;;10.75;;
17985;SDS011;9118;48.122;11.546;2023-08-17T05:22:48;11.53;;;10.40;;
17985;SDS011;9118;48.122;11.546;2023-08-17T05:25:15;12.68;;;11.27;;
17985;SDS011;9118;48.122;11.546;2023-08-17T05:27:42;13.93;;;11.30;;
17985;SDS011;9118;48.122;11.546;2023-08-17T05:30:10;12.55;;;10.70;;
17985;SDS011;9118;48.122;11.546;2023-08-17T05:32:37;11.43;;;10.25;;
17985;SDS011;9118;48.122;11.546;2023-08-17T05:35:06;11.98;;;10.77;;
17985;SDS011;9118;48.122;11.546;2023-08-17T05:37:33;14.37;;;10.60;;
17985;SDS011;9118;48.122;11.546;2023-08-17T05:40:02;15.60;;;10.67;;
17985;SDS011;9118;48.122;11.546;2023-08-17T05:42:30;11.35;;;10.25;;
17985;SDS011;9118;48.122;11.546;2023-08-17T05:44:57;14.63;;;11.10;;
17985;SDS011;9118;48.122;11.546;2023-08-17T05:47:25;12.43;;;10.07;;
17985;SDS011;9118;48.122;11.546;2023-08-17T05:49:52;12.48;;;9.85;;
17985;SDS011;9118;48.122;11.546;2023-08-17T05:52:19;10.73;;;9.63;;
17985;SDS011;9118;48.122;11.546;2023-08-17T05:54:46;10.13;;;9.23;;
17985;SDS011;9118;48.122;11.546;2023-08-17T05:57:15;10.73;;;9.63;;
17985;SDS011;9118;48.122;11.546;2023-08-17T05:59:42;13.98;;;10.38;;
17985;SDS011;9118;48.122;11.546;2023-08-17T06:02:10;13.73;;;9.60;;
17985;SDS011;9118;48.122;11.546;2023-08-17T06:04:37;11.63;;;10.47;;
17985;SDS011;9118;48.122;11.546;2023-08-17T06:07:04;15.13;;;10.33;;
17985;SDS011;9118;48.122;11.546;2023-08-17T06:09:32;12.20;;;10.60;;
17985;SDS011;9118;48.122;11.546;2023-08-17T06:12:00;11.98;;;9.70;;
17985;SDS011;9118;48.122;11.546;2023-08-17T06:14:28;11.75;;;10.52;;
17985;SDS011;9118;48.122;11.546;2023-08-17T06:16:55;13.02;;;9.98;;
17985;SDS011;9118;48.122;11.546;2023-08-17T06:19:22;14.02;;;10.02;;
17985;SDS011;9118;48.122;11.546;2023-08-17T06:21:55;13.35;;;11.07;;
17985;SDS011;9118;48.122;11.546;2023-08-17T06:24:38;12.27;;;10.35;;
17985;SDS011;9118;48.122;11.546;2023-08-17T06:27:05;11.13;;;10.03;;
17985;SDS011;9118;48.122;11.546;2023-08-17T06:29:33;11.77;;;9.93;;
17985;SDS011;9118;48.122;11.546;2023-08-17T06:32:00;11.35;;;10.15;;
17985;SDS011;9118;48.122;11.546;2023-08-17T06:34:27;11.50;;;10.27;;
17985;SDS011;9118;48.122;11.546;2023-08-17T06:36:57;11.15;;;10.05;;
17985;SDS011;9118;48.122;11.546;2023-08-17T06:39:25;12.30;;;10.05;;
17985;SDS011;9118;48.122;11.546;2023-08-17T06:41:52;10.50;;;9.50;;
17985;SDS011;9118;48.122;11.546;2023-08-17T06:44:19;12.15;;;9.80;;
17985;SDS011;9118;48.122;11.546;2023-08-17T06:46:47;10.23;;;9.18;;
17985;SDS011;9118;48.122;11.546;2023-08-17T06:49:14;11.80;;;9.95;;
17985;SDS011;9118;48.122;11.546;2023-08-17T06:51:42;12.40;;;9.57;;
17985;SDS011;9118;48.122;11.546;2023-08-17T06:54:09;13.37;;;9.73;;
17985;SDS011;9118;48.122;11.546;2023-08-17T06:56:36;10.07;;;8.85;;
17985;SDS011;9118;48.122;11.546;2023-08-17T06:59:03;10.55;;;9.45;;
17985;SDS011;9118;48.122;11.546;2023-08-17T07:01:30;10.20;;;9.20;;
17985;SDS011;9118;48.122;11.546;2023-08-17T07:03:59;10.00;;;9.00;;
17985;SDS011;9118;48.122;11.546;2023-08-17T07:06:26;13.68;;;9.10;;
17985;SDS011;9118;48.122;11.546;2023-08-17T07:08:54;9.60;;;8.70;;
17985;SDS011;9118;48.122;11.546;2023-08-17T07:11:21;10.00;;;9.00;;
17985;SDS011;9118;48.122;11.546;2023-08-17T07:13:48;10.52;;;9.27;;
17985;SDS011;9118;48.122;11.546;2023-08-17T07:16:16;10.13;;;9.13;;
17985;SDS011;9118;48.122;11.546;2023-08-17T07:18:42;9.88;;;8.88;;
17985;SDS011;9118;48.122;11.546;2023-08-17T07:21:11;12.23;;;9.20;;
17985;SDS011;9118;48.122;11.546;2023-08-17T07:23:38;11.30;;;9.67;;
17985;SDS011;9118;48.122;11.546;2023-08-17T07:26:05;9.88;;;8.98;;
17985;SDS011;9118;48.122;11.546;2023-08-17T07:28:32;10.05;;;9.15;;
17985;SDS011;9118;48.122;11.546;2023-08-17T07:30:59;10.35;;;9.35;;
17985;SDS011;9118;48.122;11.546;2023-08-17T07:33:26;9.63;;;8.73;;
17985;SDS011;9118;48.122;11.546;2023-08-17T07:35:53;11.68;;;8.82;;
17985;SDS011;9118;48.122;11.546;2023-08-17T07:38:22;9.55;;;8.55;;
17985;SDS011;9118;48.122;11.546;2023-08-17T07:40:49;9.88;;;8.88;;
17985;SDS011;9118;48.122;11.546;2023-08-17T07:43:20;11.80;;;8.68;;
17985;SDS011;9118;48.122;11.546;2023-08-17T07:45:52;10.05;;;8.93;;
17985;SDS011;9118;48.122;11.546;2023-08-17T07:48:20;10.65;;;9.55;;
17985;SDS011;9118;48.122;11.546;2023-08-17T07:50:48;10.55;;;8.88;;
17985;SDS011;9118;48.122;11.546;2023-08-17T07:53:15;10.60;;;9.60;;
17985;SDS011;9118;48.122;11.546;2023-08-17T07:55:44;9.43;;;8.52;;
17985;SDS011;9118;48.122;11.546;2023-08-17T07:58:12;10.60;;;8.82;;
17985;SDS011;9118;48.122;11.546;2023-08-17T08:00:39;10.57;;;9.20;;
17985;SDS011;9118;48.122;11.546;2023-08-17T08:03:06;11.77;;;9.90;;
17985;SDS011;9118;48.122;11.546;2023-08-17T08:05:33;9.60;;;8.38;;
17985;SDS011;9118;48.122;11.546;2023-08-17T08:08:00;9.63;;;8.65;;
17985;SDS011;9118;48.122;11.546;2023-08-17T08:10:27;9.40;;;8.60;;
17985;SDS011;9118;48.122;11.546;2023-08-17T08:12:55;11.32;;;9.07;;
17985;SDS011;9118;48.122;11.546;2023-08-17T08:15:22;9.10;;;8.23;;
17985;SDS011;9118;48.122;11.546;2023-08-17T08:17:49;8.40;;;7.70;;
17985;SDS011;9118;48.122;11.546;2023-08-17T08:20:16;9.20;;;8.40;;
17985;SDS011;9118;48.122;11.546;2023-08-17T08:22:43;9.95;;;8.93;;
17985;SDS011;9118;48.122;11.546;2023-08-17T08:25:10;9.18;;;8.38;;
17985;SDS011;9118;48.122;11.546;2023-08-17T08:27:37;12.50;;;9.20;;
17985;SDS011;9118;48.122;11.546;2023-08-17T08:30:06;8.98;;;8.15;;
17985;SDS011;9118;48.122;11.546;2023-08-17T08:32:34;9.15;;;8.35;;
17985;SDS011;9118;48.122;11.546;2023-08-17T08:35:01;9.30;;;8.40;;
17985;SDS011;9118;48.122;11.546;2023-08-17T08:37:28;9.52;;;8.32;;
17985;SDS011;9118;48.122;11.546;2023-08-17T08:39:55;9.18;;;8.27;;
17985;SDS011;9118;48.122;11.546;2023-08-17T08:42:22;10.27;;;9.27;;
17985;SDS011;9118;48.122;11.546;2023-08-17T08:44:50;9.70;;;8.80;;
17985;SDS011;9118;48.122;11.546;2023-08-17T08:47:19;8.90;;;8.10;;
17985;SDS011;9118;48.122;11.546;2023-08-17T08:49:49;14.05;;;8.95;;
17985;SDS011;9118;48.122;11.546;2023-08-17T08:52:26;16.48;;;12.00;;
17985;SDS011;9118;48.122;11.546;2023-08-17T08:54:59;12.45;;;9.50;;
17985;SDS011;9118;48.122;11.546;2023-08-17T08:57:34;9.38;;;8.48;;
17985;SDS011;9118;48.122;11.546;2023-08-17T09:00:02;8.70;;;7.80;;
17985;SDS011;9118;48.122;11.546;2023-08-17T09:02:31;8.70;;;7.90;;
17985;SDS011;9118;48.122;11.546;2023-08-17T09:04:59;8.73;;;7.93;;
17985;SDS011;9118;48.122;11.546;2023-08-17T09:07:27;8.88;;;7.97;;
17985;SDS011;9118;48.122;11.546;2023-08-17T09:09:56;8.30;;;7.47;;
17985;SDS011;9118;48.122;11.546;2023-08-17T09:12:23;8.48;;;7.68;;
17985;SDS011;9118;48.122;11.546;2023-08-17T09:14:50;8.25;;;7.55;;
17985;SDS011;9118;48.122;11.546;2023-08-17T09:17:22;8.30;;;7.60;;
17985;SDS011;9118;48.122;11.546;2023-08-17T09:19:51;9.27;;;8.07;;
17985;SDS011;9118;48.122;11.546;2023-08-17T09:22:22;7.85;;;7.10;;
17985;SDS011;9118;48.122;11.546;2023-08-17T09:24:50;7.57;;;6.82;;
17985;SDS011;9118;48.122;11.546;2023-08-17T09:27:17;7.25;;;6.55;;
17985;SDS011;9118;48.122;11.546;2023-08-17T09:29:44;7.75;;;7.05;;
17985;SDS011;9118;48.122;11.546;2023-08-17T09:32:14;7.60;;;6.90;;
17985;SDS011;9118;48.122;11.546;2023-08-17T09:34:41;7.97;;;6.82;;
17985;SDS011;9118;48.122;11.546;2023-08-17T09:37:09;8.18;;;6.93;;
17985;SDS011;9118;48.122;11.546;2023-08-17T09:39:38;7.03;;;6.43;;
17985;SDS011;9118;48.122;11.546;2023-08-17T09:42:05;7.07;;;6.47;;
17985;SDS011;9118;48.122;11.546;2023-08-17T09:44:34;7.88;;;6.25;;
17985;SDS011;9118;48.122;11.546;2023-08-17T09:47:01;8.43;;;7.30;;
17985;SDS011;9118;48.122;11.546;2023-08-17T09:49:30;9.30;;;8.40;;
17985;SDS011;9118;48.122;11.546;2023-08-17T09:51:59;7.25;;;6.65;;
17985;SDS011;9118;48.122;11.546;2023-08-17T09:54:29;8.27;;;7.50;;
17985;SDS011;9118;48.122;11.546;2023-08-17T09:56:57;8.20;;;7.32;;
17985;SDS011;9118;48.122;11.546;2023-08-17T09:59:24;8.10;;;7.40;;
17985;SDS011;9118;48.122;11.546;2023-08-17T10:01:51;13.32;;;9.88;;
17985;SDS011;9118;48.122;11.546;2023-08-17T10:04:19;7.88;;;7.25;;
17985;SDS011;9118;48.122;11.546;2023-08-17T10:06:48;7.13;;;6.53;;
17985;SDS011;9118;48.122;11.546;2023-08-17T10:09:23;8.27;;;7.53;;
17985;SDS011;9118;48.122;11.546;2023-08-17T10:11:54;10.40;;;7.82;;
17985;SDS011;9118;48.122;11.546;2023-08-17T10:14:26;11.23;;;8.38;;
17985;SDS011;9118;48.122;11.546;2023-08-17T10:17:01;7.93;;;7.13;;
17985;SDS011;9118;48.122;11.546;2023-08-17T10:19:33;7.45;;;6.85;;
17985;SDS011;9118;48.122;11.546;2023-08-17T10:22:12;7.35;;;6.75;;
17985;SDS011;9118;48.122;11.546;2023-08-17T10:24:45;7.30;;;6.55;;
17985;SDS011;9118;48.122;11.546;2023-08-17T10:27:13;8.75;;;8.05;;
17985;SDS011;9118;48.122;11.546;2023-08-17T10:29:42;8.05;;;7.25;;
17985;SDS011;9118;48.122;11.546;2023-08-17T10:32:10;8.13;;;7.43;;
17985;SDS011;9118;48.122;11.546;2023-08-17T10:34:38;7.90;;;7.20;;
17985;SDS011;9118;48.122;11.546;2023-08-17T10:37:05;8.48;;;7.72;;
17985;SDS011;9118;48.122;11.546;2023-08-17T10:39:33;8.82;;;7.43;;
17985;SDS011;9118;48.122;11.546;2023-08-17T10:42:04;9.15;;;8.35;;
17985;SDS011;9118;48.122;11.546;2023-08-17T10:44:39;9.07;;;8.18;;
17985;SDS011;9118;48.122;11.546;2023-08-17T10:47:20;8.05;;;7.35;;
17985;SDS011;9118;48.122;11.546;2023-08-17T10:49:48;8.68;;;7.78;;
17985;SDS011;9118;48.122;11.546;2023-08-17T10:52:24;7.55;;;6.90;;
17985;SDS011;9118;48.122;11.546;2023-08-17T10:54:56;8.50;;;7.07;;
17985;SDS011;9118;48.122;11.546;2023-08-17T10:57:29;7.90;;;7.07;;
17985;SDS011;9118;48.122;11.546;2023-08-17T11:00:11;7.22;;;6.63;;
17985;SDS011;9118;48.122;11.546;2023-08-17T11:02:45;7.95;;;7.35;;
17985;SDS011;9118;48.122;11.546;2023-08-17T11:08:03;8.00;;;7.00;;
17985;SDS011;9118;48.122;11.546;2023-08-17T11:10:31;7.38;;;6.75;;
17985;SDS011;9118;48.122;11.546;2023-08-17T11:12:59;7.60;;;6.88;;
17985;SDS011;9118;48.122;11.546;2023-08-17T11:15:36;7.20;;;6.50;;
17985;SDS011;9118;48.122;11.546;2023-08-17T11:18:05;6.90;;;6.30;;
17985;SDS011;9118;48.122;11.546;2023-08-17T11:20:33;7.10;;;6.40;;
17985;SDS011;9118;48.122;11.546;2023-08-17T11:23:00;7.10;;;6.30;;
17985;SDS011;9118;48.122;11.546;2023-08-17T11:25:27;7.63;;;6.93;;
17985;SDS011;9118;48.122;11.546;2023-08-17T11:27:54;7.90;;;7.25;;
17985;SDS011;9118;48.122;11.546;2023-08-17T11:30:21;7.07;;;6.47;;
17985;SDS011;9118;48.122;11.546;2023-08-17T11:32:51;7.38;;;6.68;;
17985;SDS011;9118;48.122;11.546;2023-08-17T11:35:19;7.32;;;6.63;;
17985;SDS011;9118;48.122;11.546;2023-08-17T11:37:46;9.68;;;8.05;;
17985;SDS011;9118;48.122;11.546;2023-08-17T11:40:14;7.47;;;6.75;;
17985;SDS011;9118;48.122;11.546;2023-08-17T11:42:42;7.03;;;6.43;;
17985;SDS011;9118;48.122;11.546;2023-08-17T11:45:09;8.52;;;6.80;;
17985;SDS011;9118;48.122;11.546;2023-08-17T11:47:39;9.23;;;8.48;;
17985;SDS011;9118;48.122;11.546;2023-08-17T11:50:11;8.80;;;7.93;;
17985;SDS011;9118;48.122;11.546;2023-08-17T11:52:38;7.60;;;6.88;;
17985;SDS011;9118;48.122;11.546;2023-08-17T11:55:06;8.05;;;7.25;;
17985;SDS011;9118;48.122;11.546;2023-08-17T11:57:35;8.63;;;7.15;;
17985;SDS011;9118;48.122;11.546;2023-08-17T12:00:02;7.72;;;7.10;;
17985;SDS011;9118;48.122;11.546;2023-08-17T12:02:31;8.35;;;7.45;;
17985;SDS011;9118;48.122;11.546;2023-08-17T12:05:02;8.65;;;7.63;;
17985;SDS011;9118;48.122;11.546;2023-08-17T12:07:33;8.90;;;8.05;;
17985;SDS011;9118;48.122;11.546;2023-08-17T12:10:00;9.40;;;8.55;;
17985;SDS011;9118;48.122;11.546;2023-08-17T12:12:29;10.10;;;9.15;;
17985;SDS011;9118;48.122;11.546;2023-08-17T12:14:57;8.90;;;7.97;;
17985;SDS011;9118;48.122;11.546;2023-08-17T12:17:24;9.88;;;7.70;;
17985;SDS011;9118;48.122;11.546;2023-08-17T12:19:54;7.93;;;7.30;;
17985;SDS011;9118;48.122;11.546;2023-08-17T12:22:23;7.97;;;7.25;;
17985;SDS011;9118;48.122;11.546;2023-08-17T12:24:52;8.15;;;7.55;;
17985;SDS011;9118;48.122;11.546;2023-08-17T12:27:21;8.23;;;7.53;;
17985;SDS011;9118;48.122;11.546;2023-08-17T12:29:50;8.65;;;7.93;;
17985;SDS011;9118;48.122;11.546;2023-08-17T12:32:18;8.23;;;7.63;;
17985;SDS011;9118;48.122;11.546;2023-08-17T12:34:48;9.10;;;8.23;;
17985;SDS011;9118;48.122;11.546;2023-08-17T12:37:18;8.95;;;8.15;;
17985;SDS011;9118;48.122;11.546;2023-08-17T12:39:46;8.55;;;7.60;;
17985;SDS011;9118;48.122;11.546;2023-08-17T12:42:15;10.18;;;7.88;;
17985;SDS011;9118;48.122;11.546;2023-08-17T12:44:43;8.82;;;8.13;;
17985;SDS011;9118;48.122;11.546;2023-08-17T12:47:10;9.88;;;8.38;;
17985;SDS011;9118;48.122;11.546;2023-08-17T12:49:37;9.32;;;8.43;;
17985;SDS011;9118;48.122;11.546;2023-08-17T12:52:04;9.27;;;8.35;;
17985;SDS011;9118;48.122;11.546;2023-08-17T12:54:31;10.27;;;8.23;;
17985;SDS011;9118;48.122;11.546;2023-08-17T12:56:58;8.13;;;7.38;;
17985;SDS011;9118;48.122;11.546;2023-08-17T12:59:28;7.85;;;7.25;;
17985;SDS011;9118;48.122;11.546;2023-08-17T13:01:55;8.68;;;7.88;;
17985;SDS011;9118;48.122;11.546;2023-08-17T13:04:22;8.40;;;7.72;;
17985;SDS011;9118;48.122;11.546;2023-08-17T13:06:48;8.23;;;7.50;;
17985;SDS011;9118;48.122;11.546;2023-08-17T13:09:16;7.50;;;6.90;;
17985;SDS011;9118;48.122;11.546;2023-08-17T13:11:44;7.35;;;6.85;;
17985;SDS011;9118;48.122;11.546;2023-08-17T13:14:11;8.63;;;7.82;;
17985;SDS011;9118;48.122;11.546;2023-08-17T13:16:39;7.45;;;6.72;;
17985;SDS011;9118;48.122;11.546;2023-08-17T13:19:06;7.93;;;7.30;;
17985;SDS011;9118;48.122;11.546;2023-08-17T13:21:33;8.50;;;6.80;;
17985;SDS011;9118;48.122;11.546;2023-08-17T13:24:00;9.02;;;8.25;;
17985;SDS011;9118;48.122;11.546;2023-08-17T13:26:28;7.63;;;6.85;;
17985;SDS011;9118;48.122;11.546;2023-08-17T13:28:55;8.20;;;7.10;;
17985;SDS011;9118;48.122;11.546;2023-08-17T13:31:23;7.15;;;6.45;;
17985;SDS011;9118;48.122;11.546;2023-08-17T13:33:51;7.43;;;6.75;;
17985;SDS011;9118;48.122;11.546;2023-08-17T13:36:18;7.75;;;7.00;;
17985;SDS011;9118;48.122;11.546;2023-08-17T13:38:46;8.18;;;7.53;;
17985;SDS011;9118;48.122;11.546;2023-08-17T13:41:13;8.52;;;7.80;;
17985;SDS011;9118;48.122;11.546;2023-08-17T13:43:40;7.90;;;7.30;;
17985;SDS011;9118;48.122;11.546;2023-08-17T13:46:07;7.30;;;6.70;;
17985;SDS011;9118;48.122;11.546;2023-08-17T13:48:34;7.75;;;7.15;;
17985;SDS011;9118;48.122;11.546;2023-08-17T13:51:05;7.95;;;7.15;;
17985;SDS011;9118;48.122;11.546;2023-08-17T13:53:32;7.80;;;7.07;;
17985;SDS011;9118;48.122;11.546;2023-08-17T13:55:59;7.55;;;6.63;;
17985;SDS011;9118;48.122;11.546;2023-08-17T13:58:26;7.82;;;7.18;;
17985;SDS011;9118;48.122;11.546;2023-08-17T14:00:52;7.80;;;7.13;;
17985;SDS011;9118;48.122;11.546;2023-08-17T14:03:19;7.88;;;7.10;;
17985;SDS011;9118;48.122;11.546;2023-08-17T14:05:46;7.38;;;6.78;;
17985;SDS011;9118;48.122;11.546;2023-08-17T14:08:16;8.25;;;6.95;;
17985;SDS011;9118;48.122;11.546;2023-08-17T14:10:43;8.23;;;7.38;;
17985;SDS011;9118;48.122;11.546;2023-08-17T14:13:10;8.75;;;7.97;;
17985;SDS011;9118;48.122;11.546;2023-08-17T14:15:37;11.57;;;10.38;;
17985;SDS011;9118;48.122;11.546;2023-08-17T14:18:04;8.40;;;7.70;;
17985;SDS011;9118;48.122;11.546;2023-08-17T14:20:31;9.13;;;8.25;;
17985;SDS011;9118;48.122;11.546;2023-08-17T14:22:58;9.52;;;8.68;;
17985;SDS011;9118;48.122;11.546;2023-08-17T14:25:27;9.38;;;8.43;;
17985;SDS011;9118;48.122;11.546;2023-08-17T14:27:54;10.40;;;8.68;;
17985;SDS011;9118;48.122;11.546;2023-08-17T14:30:21;9.95;;;9.15;;
17985;SDS011;9118;48.122;11.546;2023-08-17T14:32:50;9.88;;;9.07;;
17985;SDS011;9118;48.122;11.546;2023-08-17T14:35:18;9.80;;;9.00;;
17985;SDS011;9118;48.122;11.546;2023-08-17T14:37:45;10.13;;;9.18;;
17985;SDS011;9118;48.122;11.546;2023-08-17T14:40:12;10.45;;;9.02;;
17985;SDS011;9118;48.122;11.546;2023-08-17T14:42:40;8.93;;;8.07;;
17985;SDS011;9118;48.122;11.546;2023-08-17T14:45:07;8.73;;;7.85;;
17985;SDS011;9118;48.122;11.546;2023-08-17T14:47:35;8.43;;;7.63;;
17985;SDS011;9118;48.122;11.546;2023-08-17T14:50:05;8.60;;;7.82;;